sensor_id;sensor_type;location;lat;lon;timestamp;pressure;altitude;pressure_sealevel;temperature;humidity
60099;BME280;45976;49.400;8.682;2022-07-23T00:00:51;100140.94;;;25.23;59.95
60099;BME280;45976;49.400;8.682;2022-07-23T00:01:51;100144.69;;;25.37;59.79
60099;BME280;45976;49.400;8.682;2022-07-23T00:02:52;100144.19;;;25.30;60.16
60099;BME280;45976;49.400;8.682;2022-07-23T00:03:53;100142.28;;;25.30;60.45
60099;BME280;45976;49.400;8.682;2022-07-23T00:04:54;100139.03;;;25.82;57.97
60099;BME280;45976;49.400;8.682;2022-07-23T00:05:55;100132.44;;;25.98;57.32
60099;BME280;45976;49.400;8.682;2022-07-23T00:06:56;100134.28;;;26.08;57.46
60099;BME280;45976;49.400;8.682;2022-07-23T00:07:56;100140.25;;;26.10;57.11
60099;BME280;45976;49.400;8.682;2022-07-23T00:08:57;100135.66;;;26.10;57.10
60099;BME280;45976;49.400;8.682;2022-07-23T00:09:57;100133.78;;;25.52;59.05
60099;BME280;45976;49.400;8.682;2022-07-23T00:10:58;100128.13;;;25.38;59.28
60099;BME280;45976;49.400;8.682;2022-07-23T00:11:59;100128.63;;;25.55;58.81
60099;BME280;45976;49.400;8.682;2022-07-23T00:12:59;100129.53;;;25.31;59.56
60099;BME280;45976;49.400;8.682;2022-07-23T00:14:00;100124.28;;;25.59;58.76
60099;BME280;45976;49.400;8.682;2022-07-23T00:15:01;100124.81;;;25.56;59.03
60099;BME280;45976;49.400;8.682;2022-07-23T00:16:03;100130.47;;;25.60;58.71
60099;BME280;45976;49.400;8.682;2022-07-23T00:17:03;100125.38;;;25.53;58.66
60099;BME280;45976;49.400;8.682;2022-07-23T00:18:07;100135.19;;;25.39;59.42
60099;BME280;45976;49.400;8.682;2022-07-23T00:19:08;100129.38;;;25.66;58.70
60099;BME280;45976;49.400;8.682;2022-07-23T00:20:08;100132.19;;;25.51;58.67
60099;BME280;45976;49.400;8.682;2022-07-23T00:21:09;100131.13;;;25.42;59.13
60099;BME280;45976;49.400;8.682;2022-07-23T00:22:11;100136.34;;;25.18;60.22
60099;BME280;45976;49.400;8.682;2022-07-23T00:23:12;100133.09;;;25.21;60.04
60099;BME280;45976;49.400;8.682;2022-07-23T00:24:13;100136.03;;;25.35;59.78
60099;BME280;45976;49.400;8.682;2022-07-23T00:25:14;100137.22;;;25.14;60.41
60099;BME280;45976;49.400;8.682;2022-07-23T00:26:15;100144.56;;;24.98;61.12
60099;BME280;45976;49.400;8.682;2022-07-23T00:27:16;100142.13;;;24.96;61.54
60099;BME280;45976;49.400;8.682;2022-07-23T00:28:16;100133.94;;;25.12;60.53
60099;BME280;45976;49.400;8.682;2022-07-23T00:29:18;100142.81;;;25.37;59.99
60099;BME280;45976;49.400;8.682;2022-07-23T00:30:20;100138.00;;;25.78;58.47
60099;BME280;45976;49.400;8.682;2022-07-23T00:31:21;100146.00;;;25.98;57.65
60099;BME280;45976;49.400;8.682;2022-07-23T00:32:21;100147.59;;;26.09;57.46
60099;BME280;45976;49.400;8.682;2022-07-23T00:33:23;100147.97;;;25.93;57.76
60099;BME280;45976;49.400;8.682;2022-07-23T00:34:24;100152.97;;;25.70;58.70
60099;BME280;45976;49.400;8.682;2022-07-23T00:35:27;100155.53;;;25.96;57.72
60099;BME280;45976;49.400;8.682;2022-07-23T00:36:30;100160.38;;;26.04;57.81
60099;BME280;45976;49.400;8.682;2022-07-23T00:37:33;100162.50;;;25.63;58.53
60099;BME280;45976;49.400;8.682;2022-07-23T00:38:34;100173.59;;;25.71;58.51
60099;BME280;45976;49.400;8.682;2022-07-23T00:39:36;100176.16;;;26.02;57.66
60099;BME280;45976;49.400;8.682;2022-07-23T00:40:38;100181.41;;;25.88;58.05
60099;BME280;45976;49.400;8.682;2022-07-23T00:41:38;100182.19;;;25.89;58.18
60099;BME280;45976;49.400;8.682;2022-07-23T00:42:40;100189.72;;;25.53;59.45
60099;BME280;45976;49.400;8.682;2022-07-23T00:43:41;100177.88;;;25.83;58.40
60099;BME280;45976;49.400;8.682;2022-07-23T00:44:42;100187.47;;;25.65;58.62
60099;BME280;45976;49.400;8.682;2022-07-23T00:45:43;100185.13;;;25.43;59.07
60099;BME280;45976;49.400;8.682;2022-07-23T00:46:49;100180.47;;;25.59;58.42
60099;BME280;45976;49.400;8.682;2022-07-23T00:47:54;100196.06;;;25.87;57.83
60099;BME280;45976;49.400;8.682;2022-07-23T00:48:54;100193.47;;;25.62;58.23
60099;BME280;45976;49.400;8.682;2022-07-23T00:49:55;100194.31;;;25.57;57.95
60099;BME280;45976;49.400;8.682;2022-07-23T00:50:56;100196.78;;;25.39;58.07
60099;BME280;45976;49.400;8.682;2022-07-23T00:51:58;100197.41;;;25.16;58.87
60099;BME280;45976;49.400;8.682;2022-07-23T00:53:03;100200.63;;;25.23;58.61
60099;BME280;45976;49.400;8.682;2022-07-23T00:54:04;100190.88;;;25.17;58.75
60099;BME280;45976;49.400;8.682;2022-07-23T00:55:07;100177.81;;;25.44;57.78
60099;BME280;45976;49.400;8.682;2022-07-23T00:56:11;100186.50;;;25.31;58.83
60099;BME280;45976;49.400;8.682;2022-07-23T00:57:12;100184.94;;;25.10;58.31
60099;BME280;45976;49.400;8.682;2022-07-23T00:58:17;100177.94;;;24.83;59.58
60099;BME280;45976;49.400;8.682;2022-07-23T00:59:19;100172.50;;;24.48;60.24
60099;BME280;45976;49.400;8.682;2022-07-23T01:00:20;100176.56;;;24.71;59.60
60099;BME280;45976;49.400;8.682;2022-07-23T01:01:21;100167.56;;;25.16;58.27
60099;BME280;45976;49.400;8.682;2022-07-23T01:02:22;100169.75;;;25.14;58.13
60099;BME280;45976;49.400;8.682;2022-07-23T01:03:23;100163.84;;;24.46;59.78
60099;BME280;45976;49.400;8.682;2022-07-23T01:04:26;100164.63;;;24.06;60.88
60099;BME280;45976;49.400;8.682;2022-07-23T01:05:27;100167.00;;;23.93;61.36
60099;BME280;45976;49.400;8.682;2022-07-23T01:06:28;100172.25;;;24.45;60.68
60099;BME280;45976;49.400;8.682;2022-07-23T01:07:29;100171.19;;;24.41;59.95
60099;BME280;45976;49.400;8.682;2022-07-23T01:08:30;100167.09;;;24.53;59.66
60099;BME280;45976;49.400;8.682;2022-07-23T01:09:31;100171.94;;;24.06;60.57
60099;BME280;45976;49.400;8.682;2022-07-23T01:10:32;100169.81;;;24.38;59.74
60099;BME280;45976;49.400;8.682;2022-07-23T01:11:37;100174.16;;;24.69;60.39
60099;BME280;45976;49.400;8.682;2022-07-23T01:12:37;100167.66;;;24.25;60.27
60099;BME280;45976;49.400;8.682;2022-07-23T01:13:42;100180.63;;;24.13;60.61
60099;BME280;45976;49.400;8.682;2022-07-23T01:14:44;100179.31;;;24.61;59.40
60099;BME280;45976;49.400;8.682;2022-07-23T01:15:45;100185.25;;;24.48;59.43
60099;BME280;45976;49.400;8.682;2022-07-23T01:16:47;100192.06;;;24.75;59.80
60099;BME280;45976;49.400;8.682;2022-07-23T01:17:49;100200.16;;;24.90;58.34
60099;BME280;45976;49.400;8.682;2022-07-23T01:18:51;100201.25;;;24.89;58.71
60099;BME280;45976;49.400;8.682;2022-07-23T01:19:51;100195.28;;;24.57;59.93
60099;BME280;45976;49.400;8.682;2022-07-23T01:20:52;100197.44;;;24.65;59.18
60099;BME280;45976;49.400;8.682;2022-07-23T01:21:53;100186.91;;;24.54;60.17
60099;BME280;45976;49.400;8.682;2022-07-23T01:22:57;100177.69;;;24.29;59.91
60099;BME280;45976;49.400;8.682;2022-07-23T01:23:58;100171.97;;;24.21;60.27
60099;BME280;45976;49.400;8.682;2022-07-23T01:24:58;100164.38;;;24.28;60.02
60099;BME280;45976;49.400;8.682;2022-07-23T01:25:59;100165.22;;;24.18;60.18
60099;BME280;45976;49.400;8.682;2022-07-23T01:26:59;100168.72;;;24.54;59.57
60099;BME280;45976;49.400;8.682;2022-07-23T01:28:00;100170.34;;;24.55;59.08
60099;BME280;45976;49.400;8.682;2022-07-23T01:29:01;100170.09;;;24.67;59.55
60099;BME280;45976;49.400;8.682;2022-07-23T01:30:03;100180.66;;;24.33;59.46
60099;BME280;45976;49.400;8.682;2022-07-23T01:31:04;100177.94;;;24.48;60.13
60099;BME280;45976;49.400;8.682;2022-07-23T01:32:06;100169.81;;;24.48;60.36
60099;BME280;45976;49.400;8.682;2022-07-23T01:33:07;100176.59;;;24.86;59.34
60099;BME280;45976;49.400;8.682;2022-07-23T01:34:08;100175.75;;;24.95;58.60
60099;BME280;45976;49.400;8.682;2022-07-23T01:35:09;100162.63;;;25.28;57.90
60099;BME280;45976;49.400;8.682;2022-07-23T01:36:10;100171.31;;;25.25;57.18
60099;BME280;45976;49.400;8.682;2022-07-23T01:37:11;100174.59;;;25.27;57.98
60099;BME280;45976;49.400;8.682;2022-07-23T01:38:12;100174.13;;;24.99;57.74
60099;BME280;45976;49.400;8.682;2022-07-23T01:39:12;100171.97;;;24.41;59.19
60099;BME280;45976;49.400;8.682;2022-07-23T01:40:13;100171.44;;;24.44;59.49
60099;BME280;45976;49.400;8.682;2022-07-23T01:41:14;100167.66;;;24.55;59.73
60099;BME280;45976;49.400;8.682;2022-07-23T01:42:14;100171.97;;;24.71;59.30
60099;BME280;45976;49.400;8.682;2022-07-23T01:43:15;100170.88;;;25.02;58.60
60099;BME280;45976;49.400;8.682;2022-07-23T01:44:16;100174.97;;;24.24;59.90
60099;BME280;45976;49.400;8.682;2022-07-23T01:45:16;100186.63;;;24.60;59.93
60099;BME280;45976;49.400;8.682;2022-07-23T01:46:17;100186.59;;;24.65;59.34
60099;BME280;45976;49.400;8.682;2022-07-23T01:47:18;100183.88;;;24.20;60.11
60099;BME280;45976;49.400;8.682;2022-07-23T01:48:19;100184.69;;;24.15;60.78
60099;BME280;45976;49.400;8.682;2022-07-23T01:49:20;100181.03;;;23.70;61.79
60099;BME280;45976;49.400;8.682;2022-07-23T01:50:26;100174.56;;;23.76;62.13
60099;BME280;45976;49.400;8.682;2022-07-23T01:51:27;100181.72;;;24.07;60.99
60099;BME280;45976;49.400;8.682;2022-07-23T01:52:27;100169.16;;;23.76;61.69
60099;BME280;45976;49.400;8.682;2022-07-23T01:53:28;100175.75;;;24.05;61.16
60099;BME280;45976;49.400;8.682;2022-07-23T01:54:33;100171.44;;;24.24;60.50
60099;BME280;45976;49.400;8.682;2022-07-23T01:55:34;100179.56;;;24.14;61.33
60099;BME280;45976;49.400;8.682;2022-07-23T01:56:34;100173.59;;;24.52;60.03
60099;BME280;45976;49.400;8.682;2022-07-23T01:57:35;100170.06;;;24.26;60.34
60099;BME280;45976;49.400;8.682;2022-07-23T01:58:36;100171.88;;;23.91;61.73
60099;BME280;45976;49.400;8.682;2022-07-23T01:59:36;100173.47;;;23.82;61.76
60099;BME280;45976;49.400;8.682;2022-07-23T02:00:39;100163.72;;;23.76;62.20
60099;BME280;45976;49.400;8.682;2022-07-23T02:01:40;100178.47;;;24.05;61.87
60099;BME280;45976;49.400;8.682;2022-07-23T02:02:43;100175.22;;;24.18;60.98
60099;BME280;45976;49.400;8.682;2022-07-23T02:03:43;100165.44;;;24.17;60.94
60099;BME280;45976;49.400;8.682;2022-07-23T02:04:44;100166.03;;;24.34;60.60
60099;BME280;45976;49.400;8.682;2022-07-23T02:05:45;100166.50;;;23.96;61.25
60099;BME280;45976;49.400;8.682;2022-07-23T02:06:45;100166.88;;;23.37;63.51
60099;BME280;45976;49.400;8.682;2022-07-23T02:07:46;100159.91;;;23.56;63.38
60099;BME280;45976;49.400;8.682;2022-07-23T02:08:47;100163.16;;;23.58;62.69
60099;BME280;45976;49.400;8.682;2022-07-23T02:09:48;100162.31;;;23.58;63.01
60099;BME280;45976;49.400;8.682;2022-07-23T02:10:48;100154.28;;;23.83;62.10
60099;BME280;45976;49.400;8.682;2022-07-23T02:11:51;100149.09;;;23.72;62.49
60099;BME280;45976;49.400;8.682;2022-07-23T02:12:52;100147.19;;;23.05;64.77
60099;BME280;45976;49.400;8.682;2022-07-23T02:13:52;100148.31;;;23.14;64.77
60099;BME280;45976;49.400;8.682;2022-07-23T02:14:53;100145.63;;;23.14;64.60
60099;BME280;45976;49.400;8.682;2022-07-23T02:15:53;100137.44;;;22.99;65.25
60099;BME280;45976;49.400;8.682;2022-07-23T02:16:54;100146.41;;;23.72;63.27
60099;BME280;45976;49.400;8.682;2022-07-23T02:17:55;100153.97;;;23.70;63.18
60099;BME280;45976;49.400;8.682;2022-07-23T02:18:56;100160.53;;;23.94;61.77
60099;BME280;45976;49.400;8.682;2022-07-23T02:19:57;100159.13;;;23.76;62.84
60099;BME280;45976;49.400;8.682;2022-07-23T02:20:58;100168.50;;;23.43;63.44
60099;BME280;45976;49.400;8.682;2022-07-23T02:21:58;100164.00;;;23.69;62.76
60099;BME280;45976;49.400;8.682;2022-07-23T02:22:59;100165.06;;;23.63;63.41
60099;BME280;45976;49.400;8.682;2022-07-23T02:23:59;100175.19;;;24.03;62.05
60099;BME280;45976;49.400;8.682;2022-07-23T02:25:00;100154.53;;;23.77;62.73
60099;BME280;45976;49.400;8.682;2022-07-23T02:26:01;100157.25;;;23.77;62.74
60099;BME280;45976;49.400;8.682;2022-07-23T02:27:01;100159.44;;;23.90;61.82
60099;BME280;45976;49.400;8.682;2022-07-23T02:28:02;100166.63;;;23.44;63.78
60099;BME280;45976;49.400;8.682;2022-07-23T02:29:03;100167.16;;;23.51;63.43
60099;BME280;45976;49.400;8.682;2022-07-23T02:30:04;100161.31;;;23.84;62.96
60099;BME280;45976;49.400;8.682;2022-07-23T02:31:06;100170.50;;;23.16;64.73
60099;BME280;45976;49.400;8.682;2022-07-23T02:32:06;100175.66;;;23.80;63.04
60099;BME280;45976;49.400;8.682;2022-07-23T02:33:07;100185.38;;;23.66;63.02
60099;BME280;45976;49.400;8.682;2022-07-23T02:34:08;100191.47;;;24.08;62.06
60099;BME280;45976;49.400;8.682;2022-07-23T02:35:11;100192.53;;;24.17;61.53
60099;BME280;45976;49.400;8.682;2022-07-23T02:36:12;100192.22;;;23.31;64.04
60099;BME280;45976;49.400;8.682;2022-07-23T02:37:13;100188.88;;;23.66;63.46
60099;BME280;45976;49.400;8.682;2022-07-23T02:38:14;100187.75;;;23.52;63.63
60099;BME280;45976;49.400;8.682;2022-07-23T02:39:15;100190.47;;;23.57;63.29
60099;BME280;45976;49.400;8.682;2022-07-23T02:40:15;100190.59;;;23.92;62.71
60099;BME280;45976;49.400;8.682;2022-07-23T02:41:17;100189.56;;;24.08;61.88
60099;BME280;45976;49.400;8.682;2022-07-23T02:42:17;100197.22;;;23.54;63.70
60099;BME280;45976;49.400;8.682;2022-07-23T02:43:18;100195.56;;;23.43;63.72
60099;BME280;45976;49.400;8.682;2022-07-23T02:44:19;100194.50;;;23.49;63.78
60099;BME280;45976;49.400;8.682;2022-07-23T02:45:19;100204.34;;;23.76;62.95
60099;BME280;45976;49.400;8.682;2022-07-23T02:46:20;100210.69;;;23.44;63.95
60099;BME280;45976;49.400;8.682;2022-07-23T02:47:21;100194.75;;;23.01;65.12
60099;BME280;45976;49.400;8.682;2022-07-23T02:48:21;100200.06;;;23.28;65.20
60099;BME280;45976;49.400;8.682;2022-07-23T02:49:22;100198.63;;;23.20;65.11
60099;BME280;45976;49.400;8.682;2022-07-23T02:50:23;100201.28;;;23.52;63.93
60099;BME280;45976;49.400;8.682;2022-07-23T02:51:23;100209.78;;;23.81;63.08
60099;BME280;45976;49.400;8.682;2022-07-23T02:52:25;100205.44;;;23.75;62.97
60099;BME280;45976;49.400;8.682;2022-07-23T02:53:26;100196.22;;;23.76;63.24
60099;BME280;45976;49.400;8.682;2022-07-23T02:54:27;100197.44;;;24.10;62.19
60099;BME280;45976;49.400;8.682;2022-07-23T02:55:27;100200.84;;;23.85;62.85
60099;BME280;45976;49.400;8.682;2022-07-23T02:56:28;100195.97;;;23.25;64.97
60099;BME280;45976;49.400;8.682;2022-07-23T02:57:28;100206.06;;;23.40;64.64
60099;BME280;45976;49.400;8.682;2022-07-23T02:58:29;100201.66;;;23.91;62.85
60099;BME280;45976;49.400;8.682;2022-07-23T02:59:30;100203.75;;;23.58;64.08
60099;BME280;45976;49.400;8.682;2022-07-23T03:00:31;100205.22;;;24.01;62.52
60099;BME280;45976;49.400;8.682;2022-07-23T03:01:31;100213.94;;;24.08;62.37
60099;BME280;45976;49.400;8.682;2022-07-23T03:02:32;100223.72;;;24.24;61.44
60099;BME280;45976;49.400;8.682;2022-07-23T03:03:33;100224.78;;;23.46;64.03
60099;BME280;45976;49.400;8.682;2022-07-23T03:04:34;100236.72;;;24.48;60.98
60099;BME280;45976;49.400;8.682;2022-07-23T03:05:35;100242.56;;;23.89;62.42
60099;BME280;45976;49.400;8.682;2022-07-23T03:06:36;100242.94;;;24.18;61.81
60099;BME280;45976;49.400;8.682;2022-07-23T03:07:36;100232.91;;;24.18;61.57
60099;BME280;45976;49.400;8.682;2022-07-23T03:08:37;100242.22;;;23.76;63.39
60099;BME280;45976;49.400;8.682;2022-07-23T03:09:37;100238.31;;;24.23;62.21
60099;BME280;45976;49.400;8.682;2022-07-23T03:10:38;100235.38;;;24.40;61.28
60099;BME280;45976;49.400;8.682;2022-07-23T03:11:38;100234.81;;;24.23;61.47
60099;BME280;45976;49.400;8.682;2022-07-23T03:12:39;100237.00;;;24.36;61.21
60099;BME280;45976;49.400;8.682;2022-07-23T03:13:41;100230.03;;;23.73;63.29
60099;BME280;45976;49.400;8.682;2022-07-23T03:14:41;100228.34;;;24.29;61.43
60099;BME280;45976;49.400;8.682;2022-07-23T03:15:42;100239.19;;;24.59;60.72
60099;BME280;45976;49.400;8.682;2022-07-23T03:16:43;100244.06;;;24.47;61.02
60099;BME280;45976;49.400;8.682;2022-07-23T03:17:44;100239.16;;;24.29;61.58
60099;BME280;45976;49.400;8.682;2022-07-23T03:18:45;100245.69;;;24.43;60.98
60099;BME280;45976;49.400;8.682;2022-07-23T03:19:45;100252.44;;;24.25;61.46
60099;BME280;45976;49.400;8.682;2022-07-23T03:20:46;100243.47;;;24.15;61.95
60099;BME280;45976;49.400;8.682;2022-07-23T03:21:46;100236.38;;;23.99;62.40
60099;BME280;45976;49.400;8.682;2022-07-23T03:22:47;100234.78;;;24.13;62.06
60099;BME280;45976;49.400;8.682;2022-07-23T03:23:48;100242.59;;;24.04;62.50
60099;BME280;45976;49.400;8.682;2022-07-23T03:24:48;100255.47;;;24.49;60.95
60099;BME280;45976;49.400;8.682;2022-07-23T03:25:55;100246.75;;;24.37;61.22
60099;BME280;45976;49.400;8.682;2022-07-23T03:26:55;100257.59;;;24.32;61.19
60099;BME280;45976;49.400;8.682;2022-07-23T03:27:56;100258.03;;;24.04;61.82
60099;BME280;45976;49.400;8.682;2022-07-23T03:28:57;100255.88;;;24.01;62.27
60099;BME280;45976;49.400;8.682;2022-07-23T03:29:58;100251.59;;;24.15;61.85
60099;BME280;45976;49.400;8.682;2022-07-23T03:30:59;100248.91;;;24.25;61.50
60099;BME280;45976;49.400;8.682;2022-07-23T03:32:00;100249.97;;;24.24;61.56
60099;BME280;45976;49.400;8.682;2022-07-23T03:33:01;100255.44;;;24.39;60.83
60099;BME280;45976;49.400;8.682;2022-07-23T03:34:02;100263.03;;;24.47;60.70
60099;BME280;45976;49.400;8.682;2022-07-23T03:35:03;100263.53;;;24.14;61.96
60099;BME280;45976;49.400;8.682;2022-07-23T03:36:04;100262.41;;;24.05;62.12
60099;BME280;45976;49.400;8.682;2022-07-23T03:37:05;100264.59;;;24.08;62.09
60099;BME280;45976;49.400;8.682;2022-07-23T03:38:06;100257.03;;;24.30;61.37
60099;BME280;45976;49.400;8.682;2022-07-23T03:39:07;100263.50;;;24.09;62.00
60099;BME280;45976;49.400;8.682;2022-07-23T03:40:08;100267.59;;;24.16;61.90
60099;BME280;45976;49.400;8.682;2022-07-23T03:41:09;100260.47;;;24.00;61.64
60099;BME280;45976;49.400;8.682;2022-07-23T03:42:09;100261.34;;;23.12;65.07
60099;BME280;45976;49.400;8.682;2022-07-23T03:43:10;100256.66;;;23.03;65.78
60099;BME280;45976;49.400;8.682;2022-07-23T03:44:11;100264.69;;;23.29;65.24
60099;BME280;45976;49.400;8.682;2022-07-23T03:45:11;100265.09;;;23.43;64.84
60099;BME280;45976;49.400;8.682;2022-07-23T03:46:12;100255.72;;;23.66;63.56
60099;BME280;45976;49.400;8.682;2022-07-23T03:47:13;100251.97;;;23.72;63.56
60099;BME280;45976;49.400;8.682;2022-07-23T03:48:14;100256.44;;;23.09;65.31
60099;BME280;45976;49.400;8.682;2022-07-23T03:49:14;100250.84;;;23.63;63.80
60099;BME280;45976;49.400;8.682;2022-07-23T03:50:15;100248.75;;;22.91;66.04
60099;BME280;45976;49.400;8.682;2022-07-23T03:51:16;100236.19;;;23.12;65.56
60099;BME280;45976;49.400;8.682;2022-07-23T03:52:16;100242.66;;;23.47;64.34
60099;BME280;45976;49.400;8.682;2022-07-23T03:53:17;100232.06;;;22.99;66.26
60099;BME280;45976;49.400;8.682;2022-07-23T03:54:18;100243.09;;;22.61;67.72
60099;BME280;45976;49.400;8.682;2022-07-23T03:55:18;100234.59;;;22.79;67.07
60099;BME280;45976;49.400;8.682;2022-07-23T03:56:19;100240.19;;;23.41;64.88
60099;BME280;45976;49.400;8.682;2022-07-23T03:57:19;100239.72;;;23.12;65.65
60099;BME280;45976;49.400;8.682;2022-07-23T03:58:20;100237.59;;;22.51;67.90
60099;BME280;45976;49.400;8.682;2022-07-23T03:59:21;100239.91;;;23.01;66.38
60099;BME280;45976;49.400;8.682;2022-07-23T04:00:22;100229.16;;;22.74;67.35
60099;BME280;45976;49.400;8.682;2022-07-23T04:01:22;100223.88;;;22.57;68.58
60099;BME280;45976;49.400;8.682;2022-07-23T04:02:23;100221.19;;;22.94;66.87
60099;BME280;45976;49.400;8.682;2022-07-23T04:03:25;100228.09;;;22.75;67.31
60099;BME280;45976;49.400;8.682;2022-07-23T04:04:25;100222.75;;;22.85;67.10
60099;BME280;45976;49.400;8.682;2022-07-23T04:05:26;100221.88;;;22.48;68.49
60099;BME280;45976;49.400;8.682;2022-07-23T04:06:27;100221.09;;;22.79;67.58
60099;BME280;45976;49.400;8.682;2022-07-23T04:07:28;100235.94;;;22.50;68.53
60099;BME280;45976;49.400;8.682;2022-07-23T04:08:29;100233.28;;;22.55;68.90
60099;BME280;45976;49.400;8.682;2022-07-23T04:09:29;100242.41;;;23.12;66.40
60099;BME280;45976;49.400;8.682;2022-07-23T04:10:30;100257.13;;;23.31;65.73
60099;BME280;45976;49.400;8.682;2022-07-23T04:11:31;100264.66;;;23.24;65.78
60099;BME280;45976;49.400;8.682;2022-07-23T04:12:31;100268.84;;;23.42;65.31
60099;BME280;45976;49.400;8.682;2022-07-23T04:13:32;100271.28;;;23.02;66.45
60099;BME280;45976;49.400;8.682;2022-07-23T04:14:33;100284.34;;;23.15;65.88
60099;BME280;45976;49.400;8.682;2022-07-23T04:15:33;100289.78;;;23.56;64.61
60099;BME280;45976;49.400;8.682;2022-07-23T04:16:34;100290.31;;;24.10;62.60
60099;BME280;45976;49.400;8.682;2022-07-23T04:17:35;100304.78;;;23.79;63.47
60099;BME280;45976;49.400;8.682;2022-07-23T04:18:35;100313.66;;;23.70;63.72
60099;BME280;45976;49.400;8.682;2022-07-23T04:19:36;100311.50;;;23.30;65.78
60099;BME280;45976;49.400;8.682;2022-07-23T04:20:39;100319.81;;;23.55;64.47
60099;BME280;45976;49.400;8.682;2022-07-23T04:21:40;100328.44;;;24.04;62.97
60099;BME280;45976;49.400;8.682;2022-07-23T04:22:41;100343.44;;;23.33;64.67
60099;BME280;45976;49.400;8.682;2022-07-23T04:23:42;100340.69;;;23.28;65.37
60099;BME280;45976;49.400;8.682;2022-07-23T04:24:42;100335.56;;;24.10;62.89
60099;BME280;45976;49.400;8.682;2022-07-23T04:25:43;100339.19;;;23.37;66.33
60099;BME280;45976;49.400;8.682;2022-07-23T04:26:44;100332.25;;;23.19;66.74
60099;BME280;45976;49.400;8.682;2022-07-23T04:27:46;100315.41;;;22.75;69.97
60099;BME280;45976;49.400;8.682;2022-07-23T04:28:46;100315.25;;;22.39;72.47
60099;BME280;45976;49.400;8.682;2022-07-23T04:29:47;100306.25;;;22.06;75.02
60099;BME280;45976;49.400;8.682;2022-07-23T04:30:48;100297.09;;;21.86;75.57
60099;BME280;45976;49.400;8.682;2022-07-23T04:31:48;100294.03;;;21.82;76.80
60099;BME280;45976;49.400;8.682;2022-07-23T04:32:49;100283.41;;;21.92;75.03
60099;BME280;45976;49.400;8.682;2022-07-23T04:33:50;100283.19;;;21.77;77.83
60099;BME280;45976;49.400;8.682;2022-07-23T04:34:50;100289.50;;;21.66;77.16
60099;BME280;45976;49.400;8.682;2022-07-23T04:35:51;100291.66;;;21.64;77.01
60099;BME280;45976;49.400;8.682;2022-07-23T04:36:52;100296.75;;;22.52;72.61
60099;BME280;45976;49.400;8.682;2022-07-23T04:37:53;100309.66;;;22.72;72.95
60099;BME280;45976;49.400;8.682;2022-07-23T04:38:54;100313.31;;;23.19;69.96
60099;BME280;45976;49.400;8.682;2022-07-23T04:39:55;100309.94;;;22.70;72.63
60099;BME280;45976;49.400;8.682;2022-07-23T04:40:56;100306.88;;;22.13;75.64
60099;BME280;45976;49.400;8.682;2022-07-23T04:41:56;100322.25;;;21.91;77.42
60099;BME280;45976;49.400;8.682;2022-07-23T04:42:57;100320.81;;;22.54;73.87
60099;BME280;45976;49.400;8.682;2022-07-23T04:43:58;100319.75;;;22.55;73.49
60099;BME280;45976;49.400;8.682;2022-07-23T04:44:58;100309.16;;;22.48;74.13
60099;BME280;45976;49.400;8.682;2022-07-23T04:45:59;100317.44;;;22.63;73.31
60099;BME280;45976;49.400;8.682;2022-07-23T04:46:59;100327.53;;;22.73;72.76
60099;BME280;45976;49.400;8.682;2022-07-23T04:48:00;100319.13;;;23.01;71.22
60099;BME280;45976;49.400;8.682;2022-07-23T04:49:01;100318.75;;;22.61;72.66
60099;BME280;45976;49.400;8.682;2022-07-23T04:50:02;100327.16;;;22.43;73.27
60099;BME280;45976;49.400;8.682;2022-07-23T04:51:03;100321.44;;;22.12;75.21
60099;BME280;45976;49.400;8.682;2022-07-23T04:52:04;100317.38;;;21.50;77.99
60099;BME280;45976;49.400;8.682;2022-07-23T04:53:04;100327.16;;;21.94;76.55
60099;BME280;45976;49.400;8.682;2022-07-23T04:54:05;100320.56;;;21.85;76.58
60099;BME280;45976;49.400;8.682;2022-07-23T04:55:06;100329.06;;;21.77;76.82
60099;BME280;45976;49.400;8.682;2022-07-23T04:56:07;100330.47;;;22.23;75.04
60099;BME280;45976;49.400;8.682;2022-07-23T04:57:08;100339.94;;;22.26;74.76
60099;BME280;45976;49.400;8.682;2022-07-23T04:58:08;100350.75;;;22.04;75.77
60099;BME280;45976;49.400;8.682;2022-07-23T04:59:09;100347.03;;;22.32;74.59
60099;BME280;45976;49.400;8.682;2022-07-23T05:00:10;100350.34;;;22.39;73.94
60099;BME280;45976;49.400;8.682;2022-07-23T05:01:11;100357.66;;;22.38;73.96
60099;BME280;45976;49.400;8.682;2022-07-23T05:02:12;100356.59;;;22.18;74.81
60099;BME280;45976;49.400;8.682;2022-07-23T05:03:12;100369.31;;;22.65;72.81
60099;BME280;45976;49.400;8.682;2022-07-23T05:04:13;100364.69;;;22.88;71.48
60099;BME280;45976;49.400;8.682;2022-07-23T05:05:13;100365.03;;;22.96;70.76
60099;BME280;45976;49.400;8.682;2022-07-23T05:06:15;100372.16;;;23.07;70.41
60099;BME280;45976;49.400;8.682;2022-07-23T05:07:16;100371.88;;;22.77;71.44
60099;BME280;45976;49.400;8.682;2022-07-23T05:08:16;100379.22;;;22.81;71.69
60099;BME280;45976;49.400;8.682;2022-07-23T05:09:17;100383.25;;;22.57;72.75
60099;BME280;45976;49.400;8.682;2022-07-23T05:10:18;100387.34;;;23.13;70.36
60099;BME280;45976;49.400;8.682;2022-07-23T05:11:18;100383.50;;;23.04;70.35
60099;BME280;45976;49.400;8.682;2022-07-23T05:12:19;100385.47;;;22.87;71.23
60099;BME280;45976;49.400;8.682;2022-07-23T05:13:20;100393.97;;;23.27;69.58
60099;BME280;45976;49.400;8.682;2022-07-23T05:14:21;100396.69;;;23.27;69.64
60099;BME280;45976;49.400;8.682;2022-07-23T05:15:21;100395.53;;;22.65;71.86
60099;BME280;45976;49.400;8.682;2022-07-23T05:16:22;100389.06;;;22.44;73.04
60099;BME280;45976;49.400;8.682;2022-07-23T05:17:23;100384.84;;;22.32;73.63
60099;BME280;45976;49.400;8.682;2022-07-23T05:18:23;100386.84;;;21.98;75.82
60099;BME280;45976;49.400;8.682;2022-07-23T05:19:24;100380.34;;;22.16;75.24